createdAt,value
2016-11-08T18:48:42.622Z,47
2016-11-08T18:49:00.916Z,46
2016-11-08T18:49:19.232Z,48
2016-11-08T18:49:37.457Z,48
2016-11-08T18:49:57.690Z,48
2016-11-08T18:50:13.485Z,47
2016-11-08T18:50:32.343Z,49
2016-11-08T18:50:48.025Z,49
2016-11-08T18:51:06.837Z,49
2016-11-08T18:51:24.919Z,48
2016-11-08T18:51:43.139Z,49
2016-11-08T18:52:01.446Z,48
2016-11-08T18:52:19.605Z,48
2016-11-08T18:52:31.989Z,47
2016-11-08T18:52:50.179Z,46
2016-11-08T18:53:08.314Z,45
2016-11-08T18:53:23.727Z,45
2016-11-08T18:53:39.145Z,46
2016-11-08T18:53:57.227Z,46
2016-11-08T18:54:15.488Z,45
2016-11-08T18:54:33.722Z,45
2016-11-08T18:54:51.910Z,46
2016-11-08T18:55:12.984Z,45
2016-11-08T18:55:31.263Z,46
2016-11-08T18:55:43.606Z,46
2016-11-08T18:55:55.975Z,46
2016-11-08T18:56:14.148Z,46
2016-11-08T18:56:35.231Z,45
2016-11-08T18:56:50.565Z,46
2016-11-08T18:57:05.993Z,46
2016-11-08T18:57:21.329Z,45
2016-11-08T18:57:36.675Z,46
2016-11-08T18:57:51.983Z,48
2016-11-08T18:58:07.291Z,45
2016-11-08T18:58:25.513Z,45
2016-11-08T18:58:40.834Z,47
2016-11-08T18:58:56.103Z,46
2016-11-08T18:59:11.523Z,46
2016-11-08T18:59:29.639Z,47
2016-11-08T18:59:47.983Z,47
2016-11-08T19:00:11.920Z,46
2016-11-08T19:00:33.072Z,46
2016-11-08T19:00:51.219Z,46
2016-11-08T19:01:09.290Z,46
2016-11-08T19:01:27.586Z,47
2016-11-08T19:01:40.001Z,47
2016-11-08T19:01:52.467Z,47
2016-11-08T19:02:10.654Z,49
2016-11-08T19:02:25.927Z,49
2016-11-08T19:02:38.406Z,50
2016-11-08T19:02:51.133Z,49
2016-11-08T19:03:06.618Z,49
2016-11-08T19:03:18.973Z,50
2016-11-08T19:03:40.137Z,51
2016-11-08T19:03:55.491Z,51
2016-11-08T19:04:10.739Z,50
2016-11-08T19:04:26.068Z,50
2016-11-08T19:04:41.450Z,50
2016-11-08T19:04:53.776Z,49
2016-11-08T19:05:14.939Z,50
2016-11-08T19:05:33.234Z,49
2016-11-08T19:05:57.267Z,50
2016-11-08T19:06:15.550Z,50
2016-11-08T19:06:30.975Z,51
2016-11-08T19:06:46.252Z,48
2016-11-08T19:07:04.428Z,49
2016-11-08T19:07:16.864Z,49
2016-11-08T19:07:32.105Z,50
2016-11-08T19:07:44.483Z,48
2016-11-08T19:07:59.813Z,53
2016-11-08T19:08:12.223Z,50
2016-11-08T19:08:30.461Z,52
2016-11-08T19:08:45.826Z,50
2016-11-08T19:09:01.166Z,50
2016-11-08T19:09:18.092Z,50
2016-11-08T19:09:45.178Z,51
2016-11-08T19:10:03.386Z,52
2016-11-08T19:10:22.104Z,51
2016-11-08T19:10:41.295Z,52
2016-11-08T19:10:59.550Z,50
2016-11-08T19:11:14.815Z,51
2016-11-08T19:11:33.015Z,51
2016-11-08T19:11:48.239Z,52
2016-11-08T19:12:04.140Z,51
2016-11-08T19:12:28.212Z,51
2016-11-08T19:12:46.409Z,51
2016-11-08T19:13:10.597Z,51
2016-11-08T19:13:26.867Z,51
2016-11-08T19:13:42.343Z,51
2016-11-08T19:14:02.158Z,52
2016-11-08T19:14:20.524Z,51
2016-11-08T19:14:35.798Z,51
2016-11-08T19:14:56.801Z,52
2016-11-08T19:15:12.120Z,51
2016-11-08T19:15:33.690Z,51
2016-11-08T19:15:52.997Z,52
2016-11-08T19:16:11.295Z,52
2016-11-08T19:16:29.547Z,50
2016-11-08T19:16:44.709Z,50
2016-11-08T19:17:02.992Z,50
2016-11-08T19:17:15.352Z,50
2016-11-08T19:17:27.673Z,50
2016-11-08T19:17:46.759Z,51
2016-11-08T19:18:02.116Z,50
2016-11-08T19:18:17.289Z,50
2016-11-08T19:18:32.700Z,50
2016-11-08T19:18:47.869Z,50
2016-11-08T19:19:03.121Z,50
2016-11-08T19:19:15.711Z,50
2016-11-08T19:19:30.992Z,51
2016-11-08T19:19:43.602Z,51
2016-11-08T19:20:01.916Z,50
2016-11-08T19:20:22.988Z,50
2016-11-08T19:20:35.360Z,51
2016-11-08T19:20:53.696Z,51
2016-11-08T19:21:06.267Z,51
2016-11-08T19:21:24.524Z,51
2016-11-08T19:21:37.179Z,51
2016-11-08T19:21:58.169Z,51
2016-11-08T19:22:19.119Z,50
2016-11-08T19:22:31.512Z,51
2016-11-08T19:22:49.784Z,50
2016-11-08T19:23:05.025Z,50
2016-11-08T19:23:23.155Z,50
2016-11-08T19:23:38.434Z,51
2016-11-08T19:23:53.686Z,50
2016-11-08T19:24:11.926Z,50
2016-11-08T19:24:27.337Z,52
2016-11-08T19:24:42.619Z,51
2016-11-08T19:25:03.626Z,50
2016-11-08T19:25:16.158Z,50
2016-11-08T19:25:34.371Z,50
2016-11-08T19:25:52.719Z,51
2016-11-08T19:26:11.075Z,50
2016-11-08T19:26:29.123Z,50
2016-11-08T19:26:41.405Z,52
2016-11-08T19:27:02.569Z,50
2016-11-08T19:27:17.760Z,51
2016-11-08T19:27:33.028Z,50
2016-11-08T19:27:51.311Z,50
2016-11-08T19:28:03.758Z,52
2016-11-08T19:28:19.075Z,52
2016-11-08T19:28:34.510Z,50
2016-11-08T19:28:52.662Z,50
2016-11-08T19:29:10.971Z,50
2016-11-08T19:29:29.147Z,51
2016-11-08T19:29:47.288Z,51
2016-11-08T19:30:02.576Z,50
2016-11-08T19:30:20.846Z,50
2016-11-08T19:30:39.048Z,50
2016-11-08T19:30:51.525Z,50
2016-11-08T19:31:12.655Z,52
2016-11-08T19:31:27.940Z,52
2016-11-08T19:31:48.922Z,52
2016-11-08T19:32:07.223Z,50
2016-11-08T19:32:19.622Z,52
2016-11-08T19:32:40.878Z,52
2016-11-08T19:33:04.865Z,52
2016-11-08T19:33:17.318Z,52
2016-11-08T19:33:38.425Z,52
2016-11-08T19:33:56.672Z,52
2016-11-08T19:34:09.143Z,52
2016-11-08T19:34:27.457Z,50
2016-11-08T19:34:42.854Z,50
2016-11-08T19:34:58.100Z,50
2016-11-08T19:35:10.493Z,52
2016-11-08T19:35:22.992Z,50
2016-11-08T19:35:41.373Z,50
2016-11-08T19:35:56.645Z,52
2016-11-08T19:36:14.841Z,52
2016-11-08T19:36:30.135Z,50
2016-11-08T19:36:48.381Z,52
2016-11-08T19:37:01.001Z,52
2016-11-08T19:37:16.501Z,52
2016-11-08T19:37:31.727Z,50
2016-11-08T19:37:47.078Z,52
2016-11-08T19:38:02.438Z,50
2016-11-08T19:38:20.617Z,52
2016-11-08T19:38:35.879Z,52
2016-11-08T19:38:51.297Z,50
2016-11-08T19:39:03.702Z,50
2016-11-08T19:39:19.150Z,50
2016-11-08T19:39:37.295Z,53
2016-11-08T19:39:52.576Z,50
2016-11-08T19:40:05.089Z,53
2016-11-08T19:40:20.478Z,50
2016-11-08T19:40:38.586Z,50
2016-11-08T19:40:51.135Z,52
2016-11-08T19:41:03.553Z,50
2016-11-08T19:41:15.973Z,50
2016-11-08T19:41:28.462Z,51
2016-11-08T19:41:43.709Z,52
2016-11-08T19:42:07.729Z,53
2016-11-08T19:42:23.683Z,50
2016-11-08T19:42:47.655Z,50
2016-11-08T19:43:11.781Z,50
2016-11-08T19:43:29.986Z,51
2016-11-08T19:43:48.062Z,52
2016-11-08T19:44:06.288Z,50
2016-11-08T19:44:21.684Z,50
2016-11-08T19:44:36.888Z,52
2016-11-08T19:44:55.217Z,52
2016-11-08T19:45:13.312Z,49
2016-11-08T19:45:25.764Z,49
2016-11-08T19:45:41.089Z,49
2016-11-08T19:45:59.295Z,49
2016-11-08T19:46:20.256Z,49
2016-11-08T19:46:38.559Z,48
2016-11-08T19:47:00.557Z,51
2016-11-08T19:47:21.616Z,49
2016-11-08T19:47:37.028Z,49
2016-11-08T19:47:49.462Z,49
2016-11-08T19:48:06.106Z,51
2016-11-08T19:48:24.509Z,49
2016-11-08T19:48:50.902Z,49
2016-11-08T19:49:10.871Z,50
2016-11-08T19:49:31.667Z,51
2016-11-08T19:49:47.974Z,49
2016-11-08T19:50:07.239Z,49
2016-11-08T19:50:22.601Z,49
2016-11-08T19:50:37.875Z,49
2016-11-08T19:50:56.018Z,49
2016-11-08T19:51:11.546Z,49
2016-11-08T19:51:24.088Z,49
2016-11-08T19:51:39.400Z,49
2016-11-08T19:51:51.952Z,49
2016-11-08T19:52:09.651Z,48
2016-11-08T19:52:22.063Z,49
2016-11-08T19:52:40.386Z,49
2016-11-08T19:53:02.435Z,49
2016-11-08T19:53:20.596Z,48
2016-11-08T19:53:35.893Z,49
2016-11-08T19:53:54.275Z,49
2016-11-08T19:54:12.448Z,48
2016-11-08T19:54:24.827Z,49
2016-11-08T19:54:40.247Z,49
2016-11-08T19:54:58.471Z,48
2016-11-08T19:55:21.876Z,48
2016-11-08T19:55:40.107Z,50
2016-11-08T19:55:52.491Z,49
2016-11-08T19:56:07.856Z,49
2016-11-08T19:56:20.311Z,49
2016-11-08T19:56:38.463Z,50
2016-11-08T19:56:50.875Z,49
2016-11-08T19:57:14.428Z,49
2016-11-08T19:57:33.887Z,49
2016-11-08T19:57:49.291Z,49
2016-11-08T19:58:07.561Z,49
2016-11-08T19:58:22.826Z,49
2016-11-08T19:58:43.913Z,49
2016-11-08T19:59:05.005Z,49
2016-11-08T19:59:23.922Z,49
2016-11-08T19:59:45.884Z,49
2016-11-08T19:59:58.444Z,49
2016-11-08T20:00:13.937Z,49
2016-11-08T20:00:32.168Z,48
2016-11-08T20:00:44.732Z,49
2016-11-08T20:00:59.986Z,49
2016-11-08T20:01:15.323Z,50
2016-11-08T20:01:27.706Z,49
2016-11-08T20:01:45.892Z,49
2016-11-08T20:02:05.707Z,49
2016-11-08T20:02:23.975Z,48
2016-11-08T20:02:36.612Z,50
2016-11-08T20:02:57.516Z,49
2016-11-08T20:03:16.028Z,48
2016-11-08T20:03:28.745Z,48
2016-11-08T20:03:41.571Z,48
2016-11-08T20:03:57.005Z,49
2016-11-08T20:04:16.050Z,48
2016-11-08T20:04:32.264Z,49
2016-11-08T20:04:48.268Z,49
2016-11-08T20:05:03.693Z,48
2016-11-08T20:05:18.994Z,50
2016-11-08T20:05:37.271Z,49
2016-11-08T20:05:56.012Z,48
2016-11-08T20:06:08.854Z,49
2016-11-08T20:06:21.428Z,49
2016-11-08T20:06:36.664Z,49
2016-11-08T20:06:52.057Z,49
2016-11-08T20:07:13.301Z,49
2016-11-08T20:07:28.738Z,49
2016-11-08T20:07:44.021Z,49
2016-11-08T20:08:02.263Z,49
2016-11-08T20:08:14.573Z,49
2016-11-08T20:08:29.601Z,49
2016-11-08T20:08:42.211Z,49
2016-11-08T20:09:06.166Z,49
2016-11-08T20:09:21.623Z,51
2016-11-08T20:09:37.974Z,51
2016-11-08T20:09:53.654Z,49
2016-11-08T20:10:08.972Z,49
2016-11-08T20:10:30.149Z,49
2016-11-08T20:10:48.505Z,49
2016-11-08T20:11:01.037Z,49
2016-11-08T20:11:13.589Z,48
2016-11-08T20:11:31.932Z,49
2016-11-08T20:11:47.331Z,49
2016-11-08T20:12:02.742Z,51
2016-11-08T20:12:21.047Z,49
2016-11-08T20:12:40.802Z,48
2016-11-08T20:12:53.613Z,51
2016-11-08T20:13:06.110Z,49
2016-11-08T20:13:24.363Z,49
2016-11-08T20:13:45.380Z,51
2016-11-08T20:14:00.680Z,49
2016-11-08T20:14:19.028Z,49
2016-11-08T20:14:37.358Z,49
2016-11-08T20:14:55.540Z,49
2016-11-08T20:15:10.974Z,49
2016-11-08T20:15:23.272Z,48
2016-11-08T20:15:41.372Z,49
2016-11-08T20:15:59.629Z,49
2016-11-08T20:16:14.917Z,49
2016-11-08T20:16:30.313Z,49
2016-11-08T20:16:46.586Z,49
2016-11-08T20:17:03.498Z,49
2016-11-08T20:17:18.719Z,49
2016-11-08T20:17:38.967Z,49
2016-11-08T20:17:53.463Z,49
2016-11-08T20:18:10.369Z,47
2016-11-08T20:18:28.699Z,47
2016-11-08T20:18:52.771Z,49
2016-11-08T20:19:08.836Z,49
2016-11-08T20:19:24.578Z,49
2016-11-08T20:19:43.798Z,49
2016-11-08T20:20:00.314Z,49
2016-11-08T20:20:16.404Z,50
2016-11-08T20:20:34.571Z,49
2016-11-08T20:21:01.493Z,49
2016-11-08T20:21:21.137Z,49
2016-11-08T20:21:36.447Z,49
2016-11-08T20:21:55.074Z,49
2016-11-08T20:22:10.956Z,50
2016-11-08T20:22:33.330Z,50
2016-11-08T20:22:49.157Z,49
2016-11-08T20:23:07.416Z,49
2016-11-08T20:23:26.786Z,49
2016-11-08T20:23:45.171Z,49
2016-11-08T20:23:58.093Z,49
2016-11-08T20:24:16.866Z,49
2016-11-08T20:24:35.424Z,49
2016-11-08T20:24:54.498Z,49
2016-11-08T20:25:16.319Z,51
2016-11-08T20:25:35.174Z,49
2016-11-08T20:25:51.012Z,49
2016-11-08T20:26:12.285Z,50
2016-11-08T20:26:25.183Z,50
2016-11-08T20:26:44.141Z,49
2016-11-08T20:27:06.076Z,49
2016-11-08T20:27:24.908Z,49
2016-11-08T20:27:41.024Z,50
2016-11-08T20:27:56.535Z,49
2016-11-08T20:28:14.832Z,50
2016-11-08T20:28:27.835Z,50
2016-11-08T20:28:43.986Z,49
2016-11-08T20:29:00.255Z,49
2016-11-08T20:29:13.164Z,49
2016-11-08T20:29:32.097Z,49
2016-11-08T20:29:45.106Z,49
2016-11-08T20:30:01.126Z,50
2016-11-08T20:30:20.449Z,49
2016-11-08T20:30:38.786Z,49
2016-11-08T20:30:54.253Z,50
2016-11-08T20:31:10.360Z,48
2016-11-08T20:31:26.242Z,50
2016-11-08T20:31:38.766Z,49
2016-11-08T20:31:57.959Z,50
2016-11-08T20:32:10.983Z,49
2016-11-08T20:32:26.457Z,49
2016-11-08T20:32:45.493Z,49
2016-11-08T20:33:01.225Z,49
2016-11-08T20:33:19.599Z,49
2016-11-08T20:33:38.035Z,49
2016-11-08T20:33:56.174Z,49
2016-11-08T20:34:15.263Z,49
2016-11-08T20:34:31.145Z,50
2016-11-08T20:34:51.321Z,49
2016-11-08T20:35:13.492Z,49
2016-11-08T20:35:31.824Z,49
2016-11-08T20:35:52.970Z,49
2016-11-08T20:36:05.698Z,50
2016-11-08T20:36:23.307Z,49
2016-11-08T20:36:54.732Z,49
2016-11-08T20:37:07.827Z,49
2016-11-08T20:37:29.565Z,49
2016-11-08T20:37:50.911Z,49
2016-11-08T20:38:09.711Z,50
2016-11-08T20:38:28.461Z,49
2016-11-08T20:38:44.147Z,50
2016-11-08T20:39:03.054Z,49
2016-11-08T20:39:18.619Z,50
2016-11-08T20:39:37.565Z,49
2016-11-08T20:39:52.558Z,49
2016-11-08T20:40:05.347Z,49
2016-11-08T20:40:24.458Z,49
2016-11-08T20:40:41.016Z,49
2016-11-08T20:41:03.738Z,49
2016-11-08T20:41:20.229Z,51
2016-11-08T20:41:33.407Z,51
2016-11-08T20:41:48.924Z,49
2016-11-08T20:42:07.985Z,49
2016-11-08T20:42:23.761Z,49
2016-11-08T20:42:45.517Z,51
2016-11-08T20:43:01.065Z,51
2016-11-08T20:43:14.706Z,51
2016-11-08T20:43:30.561Z,49
2016-11-08T20:43:43.581Z,49
2016-11-08T20:43:56.332Z,49
2016-11-08T20:44:09.123Z,49
2016-11-08T20:44:25.174Z,51
2016-11-08T20:44:41.708Z,51
2016-11-08T20:44:57.904Z,51
2016-11-08T20:45:10.783Z,49
2016-11-08T20:45:29.176Z,49
2016-11-08T20:45:44.797Z,51
2016-11-08T20:46:06.487Z,51
2016-11-08T20:46:22.838Z,49
2016-11-08T20:46:35.841Z,49
2016-11-08T20:46:51.156Z,49
2016-11-08T20:47:06.422Z,49
2016-11-08T20:47:22.466Z,49
2016-11-08T20:47:41.273Z,49
2016-11-08T20:48:05.229Z,49
2016-11-08T20:48:24.092Z,49
2016-11-08T20:48:40.400Z,51
2016-11-08T20:48:58.763Z,49
2016-11-08T20:49:14.447Z,49
2016-11-08T20:49:33.529Z,49
2016-11-08T20:49:55.622Z,49
2016-11-08T20:50:11.139Z,49
2016-11-08T20:50:30.367Z,49
2016-11-08T20:50:53.323Z,49
2016-11-08T20:51:08.715Z,49
2016-11-08T20:51:21.625Z,50
2016-11-08T20:51:37.888Z,49
2016-11-08T20:52:02.457Z,49
2016-11-08T20:52:18.409Z,49
2016-11-08T20:52:34.283Z,50
2016-11-08T20:52:46.947Z,50
2016-11-08T20:53:02.816Z,49
2016-11-08T20:53:25.517Z,49
2016-11-08T20:53:41.323Z,49
2016-11-08T20:54:00.013Z,49
2016-11-08T20:54:13.052Z,49
2016-11-08T20:54:31.711Z,49
2016-11-08T20:54:47.862Z,49
2016-11-08T20:55:09.129Z,49
2016-11-08T20:55:29.738Z,49
2016-11-08T20:55:45.341Z,49
2016-11-08T20:56:07.541Z,49
2016-11-08T20:56:23.676Z,49
2016-11-08T20:56:37.143Z,49
2016-11-08T20:57:01.196Z,49
2016-11-08T20:57:13.825Z,49
2016-11-08T20:57:30.459Z,50
2016-11-08T20:57:48.752Z,51
2016-11-08T20:58:07.835Z,49
2016-11-08T20:58:26.860Z,49
2016-11-08T20:58:42.793Z,49
2016-11-08T20:59:01.612Z,51
2016-11-08T20:59:27.429Z,51
2016-11-08T20:59:52.304Z,51
2016-11-08T21:00:11.359Z,51
2016-11-08T21:00:26.888Z,51
2016-11-08T21:00:42.891Z,49
2016-11-08T21:01:00.158Z,51
2016-11-08T21:01:13.329Z,50
2016-11-08T21:01:38.605Z,50
2016-11-08T21:01:51.664Z,49
2016-11-08T21:02:09.955Z,49
2016-11-08T21:02:22.410Z,49
2016-11-08T21:02:40.469Z,49
2016-11-08T21:02:55.983Z,48
2016-11-08T21:03:14.125Z,48
2016-11-08T21:03:29.470Z,48
2016-11-08T21:03:41.827Z,48
2016-11-08T21:03:54.292Z,48
2016-11-08T21:04:12.745Z,48
2016-11-08T21:04:27.387Z,50
2016-11-08T21:04:46.071Z,48
2016-11-08T21:05:01.391Z,47
2016-11-08T21:05:19.701Z,50
2016-11-08T21:05:35.078Z,49
2016-11-08T21:05:49.110Z,49
2016-11-08T21:06:01.690Z,50
2016-11-08T21:06:14.144Z,49
2016-11-08T21:06:32.355Z,49
2016-11-08T21:06:49.510Z,49
2016-11-08T21:07:08.221Z,49
2016-11-08T21:07:20.725Z,50
2016-11-08T21:07:35.958Z,49
2016-11-08T21:07:51.301Z,48
2016-11-08T21:08:07.108Z,49
2016-11-08T21:08:25.530Z,49
2016-11-08T21:08:43.738Z,49
2016-11-08T21:08:59.117Z,49
2016-11-08T21:09:11.797Z,49
2016-11-08T21:09:27.091Z,49
2016-11-08T21:09:45.591Z,50
2016-11-08T21:10:00.952Z,49
2016-11-08T21:10:13.522Z,49
2016-11-08T21:10:25.894Z,50
2016-11-08T21:10:41.447Z,49
2016-11-08T21:11:02.576Z,50
2016-11-08T21:11:18.017Z,50
2016-11-08T21:11:33.253Z,49
2016-11-08T21:11:45.772Z,48
2016-11-08T21:11:58.257Z,50
2016-11-08T21:12:16.352Z,50
2016-11-08T21:12:31.783Z,49
2016-11-08T21:12:44.322Z,49
2016-11-08T21:12:59.545Z,49
2016-11-08T21:13:14.816Z,49
2016-11-08T21:13:30.172Z,49
2016-11-08T21:13:48.379Z,49
2016-11-08T21:14:03.628Z,48
2016-11-08T21:14:18.993Z,49
2016-11-08T21:14:37.304Z,49
2016-11-08T21:14:52.531Z,51
2016-11-08T21:15:05.036Z,51
2016-11-08T21:15:17.474Z,51
2016-11-08T21:15:35.789Z,51
2016-11-08T21:15:51.220Z,49
2016-11-08T21:16:06.778Z,49
2016-11-08T21:16:31.151Z,49
2016-11-08T21:16:49.406Z,49
2016-11-08T21:17:10.477Z,49
2016-11-08T21:17:31.628Z,49
2016-11-08T21:17:47.097Z,49
2016-11-08T21:18:05.784Z,49
2016-11-08T21:18:18.290Z,49
2016-11-08T21:18:33.721Z,48
2016-11-08T21:18:49.044Z,50
2016-11-08T21:19:04.421Z,50
2016-11-08T21:19:22.555Z,49
2016-11-08T21:19:34.864Z,49
2016-11-08T21:19:47.151Z,49
2016-11-08T21:20:02.413Z,49
2016-11-08T21:20:20.626Z,49
2016-11-08T21:20:38.920Z,49
2016-11-08T21:20:51.473Z,49
2016-11-08T21:21:09.583Z,49
2016-11-08T21:21:21.802Z,51
2016-11-08T21:21:37.159Z,49
2016-11-08T21:21:55.353Z,49
2016-11-08T21:22:16.459Z,49
2016-11-08T21:22:34.900Z,49
2016-11-08T21:22:47.355Z,50
2016-11-08T21:23:02.727Z,48
2016-11-08T21:23:18.082Z,49
2016-11-08T21:23:35.243Z,48
2016-11-08T21:24:02.743Z,49
2016-11-08T21:24:27.687Z,49
2016-11-08T21:24:42.871Z,48
2016-11-08T21:24:56.894Z,50
2016-11-08T21:25:16.253Z,49
2016-11-08T21:25:35.270Z,49
2016-11-08T21:25:48.947Z,49
2016-11-08T21:26:07.910Z,49
2016-11-08T21:26:21.660Z,49
2016-11-08T21:26:38.404Z,50
2016-11-08T21:26:56.566Z,49
2016-11-08T21:27:10.283Z,49
2016-11-08T21:27:25.530Z,49
2016-11-08T21:27:47.129Z,49
2016-11-08T21:28:05.308Z,50
2016-11-08T21:28:23.467Z,50
2016-11-08T21:28:39.998Z,49
2016-11-08T21:29:01.965Z,49
2016-11-08T21:29:15.122Z,49
2016-11-08T21:29:30.420Z,49
2016-11-08T21:29:52.700Z,49
2016-11-08T21:30:07.969Z,49
2016-11-08T21:30:26.796Z,49
2016-11-08T21:30:39.849Z,49
2016-11-08T21:30:56.644Z,49
2016-11-08T21:31:12.028Z,49
2016-11-08T21:31:24.513Z,49
2016-11-08T21:31:39.771Z,49
2016-11-08T21:31:52.877Z,49
2016-11-08T21:32:06.738Z,49
2016-11-08T21:32:32.711Z,49
2016-11-08T21:32:46.453Z,49
2016-11-08T21:33:09.152Z,49
2016-11-08T21:33:25.774Z,49
2016-11-08T21:33:41.602Z,49
2016-11-08T21:34:00.027Z,48
2016-11-08T21:34:18.040Z,49
2016-11-08T21:34:30.572Z,50
2016-11-08T21:34:45.889Z,49
2016-11-08T21:35:09.236Z,50
2016-11-08T21:35:24.594Z,50
2016-11-08T21:35:40.030Z,50
2016-11-08T21:35:55.346Z,49
2016-11-08T21:36:07.828Z,49
2016-11-08T21:36:29.570Z,50
2016-11-08T21:36:41.905Z,49
2016-11-08T21:37:00.105Z,50
2016-11-08T21:37:12.624Z,49
2016-11-08T21:37:33.942Z,49
2016-11-08T21:37:49.999Z,49
2016-11-08T21:38:07.013Z,49
2016-11-08T21:38:19.800Z,49
2016-11-08T21:38:36.085Z,48
2016-11-08T21:38:48.466Z,49
2016-11-08T21:39:01.107Z,49
2016-11-08T21:39:19.405Z,48
2016-11-08T21:39:39.053Z,50
2016-11-08T21:39:51.517Z,50
2016-11-08T21:40:10.339Z,51
2016-11-08T21:40:28.614Z,49
2016-11-08T21:40:44.298Z,49
2016-11-08T21:41:07.190Z,51
2016-11-08T21:41:24.314Z,49
2016-11-08T21:41:42.386Z,49
2016-11-08T21:41:57.718Z,49
2016-11-08T21:42:12.475Z,49
2016-11-08T21:42:28.895Z,49
2016-11-08T21:42:41.237Z,49
2016-11-08T21:42:59.370Z,49
2016-11-08T21:43:14.730Z,50
2016-11-08T21:43:32.972Z,49
2016-11-08T21:43:45.478Z,49
2016-11-08T21:44:00.887Z,49
2016-11-08T21:44:13.378Z,49
2016-11-08T21:44:28.539Z,49
2016-11-08T21:44:46.803Z,49
2016-11-08T21:45:06.206Z,49
2016-11-08T21:45:18.761Z,49
2016-11-08T21:45:36.851Z,49
2016-11-08T21:45:49.300Z,51
2016-11-08T21:46:04.579Z,49
2016-11-08T21:46:22.825Z,49
2016-11-08T21:46:44.550Z,48
2016-11-08T21:47:02.551Z,49
2016-11-08T21:47:24.082Z,49
2016-11-08T21:47:39.471Z,49
2016-11-08T21:48:07.965Z,49
2016-11-08T21:48:26.338Z,50
2016-11-08T21:48:41.682Z,50
2016-11-08T21:49:04.403Z,50
2016-11-08T21:49:16.761Z,49
2016-11-08T21:49:32.204Z,49
2016-11-08T21:49:45.224Z,48
2016-11-08T21:50:05.346Z,49
2016-11-08T21:50:20.853Z,50
2016-11-08T21:50:38.121Z,49
2016-11-08T21:50:59.729Z,49
2016-11-08T21:51:25.029Z,49
2016-11-08T21:51:42.944Z,49
2016-11-08T21:52:02.736Z,49
2016-11-08T21:52:18.158Z,49
2016-11-08T21:52:33.509Z,49
2016-11-08T21:52:46.121Z,49
2016-11-08T21:53:05.951Z,49
2016-11-08T21:53:25.980Z,49
2016-11-08T21:53:47.021Z,49
2016-11-08T21:54:02.491Z,49
2016-11-08T21:54:14.859Z,49
2016-11-08T21:54:33.060Z,49
2016-11-08T21:54:54.200Z,49
2016-11-08T21:55:12.401Z,49
2016-11-08T21:55:27.938Z,49
2016-11-08T21:55:43.556Z,49
2016-11-08T21:56:00.544Z,49
2016-11-08T21:56:19.315Z,49
2016-11-08T21:56:43.715Z,49
2016-11-08T21:57:08.061Z,49
2016-11-08T21:57:24.709Z,49
2016-11-08T21:57:42.648Z,50
2016-11-08T21:58:00.902Z,49
2016-11-08T21:58:20.275Z,49
2016-11-08T21:58:32.581Z,49
2016-11-08T21:58:45.801Z,49
2016-11-08T21:59:00.981Z,49
2016-11-08T21:59:15.099Z,49
2016-11-08T21:59:27.556Z,51
2016-11-08T21:59:45.863Z,49
2016-11-08T22:00:01.922Z,51
2016-11-08T22:00:22.992Z,49
2016-11-08T22:00:36.699Z,49
2016-11-08T22:00:55.925Z,50
2016-11-08T22:01:16.623Z,50
2016-11-08T22:01:32.008Z,49
2016-11-08T22:01:47.200Z,50
2016-11-08T22:02:01.918Z,49
2016-11-08T22:02:18.195Z,49
2016-11-08T22:02:30.748Z,49
2016-11-08T22:02:43.323Z,49
2016-11-08T22:02:58.615Z,51
2016-11-08T22:03:10.910Z,49
2016-11-08T22:03:23.605Z,49
2016-11-08T22:03:41.515Z,49
2016-11-08T22:03:59.711Z,49
2016-11-08T22:04:12.275Z,49
2016-11-08T22:04:30.445Z,51
2016-11-08T22:04:45.682Z,49
2016-11-08T22:04:58.157Z,49
2016-11-08T22:05:13.470Z,49
2016-11-08T22:05:25.903Z,51
2016-11-08T22:05:41.215Z,49
2016-11-08T22:05:59.519Z,49
2016-11-08T22:06:17.972Z,51
2016-11-08T22:06:33.218Z,51
2016-11-08T22:06:51.422Z,49
2016-11-08T22:07:03.864Z,49
2016-11-08T22:07:19.209Z,49
2016-11-08T22:07:31.622Z,51
2016-11-08T22:07:44.053Z,49
2016-11-08T22:07:59.138Z,49
2016-11-08T22:08:14.228Z,49
2016-11-08T22:08:32.543Z,51
2016-11-08T22:08:47.698Z,51
2016-11-08T22:09:00.172Z,51
2016-11-08T22:09:21.274Z,49
2016-11-08T22:09:33.755Z,49
2016-11-08T22:09:49.019Z,49
2016-11-08T22:10:04.221Z,51
2016-11-08T22:10:19.462Z,49
2016-11-08T22:10:34.791Z,51
2016-11-08T22:10:52.015Z,49
2016-11-08T22:11:09.086Z,49
2016-11-08T22:11:21.497Z,49
2016-11-08T22:11:39.716Z,51
2016-11-08T22:11:57.822Z,49
2016-11-08T22:12:10.292Z,49
2016-11-08T22:12:22.691Z,49
2016-11-08T22:12:34.830Z,51
2016-11-08T22:12:50.124Z,51
2016-11-08T22:13:02.501Z,49
2016-11-08T22:13:14.986Z,48
2016-11-08T22:13:36.151Z,49
2016-11-08T22:13:54.457Z,49
2016-11-08T22:14:06.922Z,49
2016-11-08T22:14:27.921Z,49
2016-11-08T22:14:46.127Z,51
2016-11-08T22:15:04.298Z,49
2016-11-08T22:15:16.642Z,49
2016-11-08T22:15:29.107Z,49
2016-11-08T22:15:44.299Z,49
2016-11-08T22:16:02.335Z,49
2016-11-08T22:16:17.592Z,49
2016-11-08T22:16:35.849Z,49
2016-11-08T22:16:48.251Z,49
2016-11-08T22:17:03.675Z,51
2016-11-08T22:17:18.672Z,49
2016-11-08T22:17:31.081Z,51
2016-11-08T22:17:46.391Z,49
2016-11-08T22:18:05.626Z,49
2016-11-08T22:18:18.038Z,49
2016-11-08T22:18:39.097Z,51
2016-11-08T22:18:54.447Z,51
2016-11-08T22:19:09.677Z,51
2016-11-08T22:19:25.031Z,51
2016-11-08T22:19:40.461Z,51
2016-11-08T22:20:01.512Z,51
2016-11-08T22:20:16.884Z,51
2016-11-08T22:20:32.151Z,51
2016-11-08T22:20:44.594Z,51
2016-11-08T22:21:00.016Z,49
2016-11-08T22:21:18.198Z,51
2016-11-08T22:21:30.540Z,49
2016-11-08T22:21:43.051Z,51
2016-11-08T22:21:55.374Z,49
2016-11-08T22:22:10.620Z,49
2016-11-08T22:22:23.266Z,51
2016-11-08T22:22:35.752Z,49
2016-11-08T22:22:48.106Z,51
2016-11-08T22:23:00.606Z,51
2016-11-08T22:23:18.866Z,51
2016-11-08T22:23:31.241Z,51
2016-11-08T22:23:46.492Z,49
2016-11-08T22:23:59.055Z,49
2016-11-08T22:24:17.377Z,49
2016-11-08T22:24:35.543Z,51
2016-11-08T22:24:50.942Z,49
2016-11-08T22:25:09.805Z,49
2016-11-08T22:25:28.204Z,49
2016-11-08T22:25:40.694Z,49
2016-11-08T22:25:58.939Z,49
2016-11-08T22:26:19.548Z,51
2016-11-08T22:26:37.782Z,49
2016-11-08T22:26:56.044Z,49
2016-11-08T22:27:14.348Z,49
2016-11-08T22:27:32.657Z,51
2016-11-08T22:27:44.969Z,49
2016-11-08T22:28:00.337Z,49
2016-11-08T22:28:18.538Z,46
2016-11-08T22:28:36.702Z,51
2016-11-08T22:28:54.955Z,49
2016-11-08T22:29:16.139Z,54
2016-11-08T22:29:31.380Z,48
2016-11-08T22:29:46.658Z,50
2016-11-08T22:30:01.967Z,48
2016-11-08T22:30:20.222Z,51
2016-11-08T22:30:38.382Z,51
2016-11-08T22:30:59.558Z,51
2016-11-08T22:31:17.778Z,48
2016-11-08T22:31:35.984Z,50
2016-11-08T22:31:51.291Z,49
2016-11-08T22:32:06.583Z,49
2016-11-08T22:32:24.823Z,51
2016-11-08T22:32:40.112Z,49
2016-11-08T22:32:52.533Z,51
2016-11-08T22:33:08.077Z,51
2016-11-08T22:33:23.302Z,51
2016-11-08T22:33:44.532Z,51
2016-11-08T22:33:59.948Z,51
2016-11-08T22:34:15.221Z,51
2016-11-08T22:34:35.028Z,51
2016-11-08T22:34:50.424Z,51
2016-11-08T22:35:05.636Z,51
2016-11-08T22:35:20.928Z,49
2016-11-08T22:35:33.495Z,51
2016-11-08T22:35:48.754Z,49
2016-11-08T22:36:07.092Z,43
2016-11-08T22:36:22.383Z,49
2016-11-08T22:36:34.720Z,51
2016-11-08T22:36:54.279Z,51
2016-11-08T22:37:15.515Z,51
2016-11-08T22:37:35.153Z,51
2016-11-08T22:37:52.673Z,49
2016-11-08T22:38:08.053Z,49
2016-11-08T22:38:30.109Z,49
2016-11-08T22:38:48.240Z,49
2016-11-08T22:39:07.384Z,49
2016-11-08T22:39:25.535Z,49
2016-11-08T22:39:43.781Z,51
2016-11-08T22:39:56.231Z,55
2016-11-08T22:40:14.333Z,50
2016-11-08T22:40:32.992Z,51
2016-11-08T22:40:49.441Z,51
2016-11-08T22:41:02.433Z,51
2016-11-08T22:41:15.053Z,51
2016-11-08T22:41:32.759Z,50
2016-11-08T22:41:48.006Z,50
2016-11-08T22:42:09.117Z,50
2016-11-08T22:42:24.371Z,50
2016-11-08T22:42:41.791Z,51
2016-11-08T22:42:54.267Z,50
2016-11-08T22:43:09.868Z,51
2016-11-08T22:43:26.099Z,51
2016-11-08T22:43:41.414Z,50
2016-11-08T22:43:59.740Z,41
2016-11-08T22:44:18.022Z,17
2016-11-08T22:44:38.931Z,15
2016-11-08T22:44:54.276Z,15
2016-11-08T22:45:09.422Z,15
2016-11-08T22:45:21.804Z,15
2016-11-08T22:45:37.100Z,15
2016-11-08T22:45:52.548Z,15
2016-11-08T22:46:04.941Z,15
2016-11-08T22:46:17.320Z,15
2016-11-08T22:46:29.579Z,15
2016-11-08T22:46:50.455Z,15